Terminal Aerodrome Forecast
Issued by NWS

Home | Current Version | Previous Version | Text Only | Print | Product List | Glossary On
Versions: 1 2 3 4 5 6 7 8 9 10 11 12 13 14 15 16 17 18
000
FTUS45 KGGW 102300
TAFSDY
TAF
KSDY 102320Z 1100/1124 28014KT P6SM SKC
     FM110300 36007KT P6SM SKC
     FM111200 36008KT P6SM VCSH SCT090
     FM111800 35009KT P6SM SCT090
      AMD LTD TO CLD VIS AND WIND=

USA.gov is the U.S. government's official web portal to all federal, state and local government web resources and services.